Time;durP1;ratioP1;P1;durP2;ratioP2;P2;SDS_P1;SDS_P2;PMS_P1;PMS_P2;Temp;Humidity;BMP_temperature;BMP_pressure;BME280_temperature;BME280_humidity;BME280_pressure;Samples;Min_cycle;Max_cycle;Signal;HPM_P1;HPM_P2
2023/08/22 00:10:24;;;;;;;6.97;4.40;;;;;;;19.15;100.00;101878.44;4916257;29;20409;-89
2023/08/22 00:16:33;;;;;;;6.68;4.15;;;;;;;19.07;100.00;101871.44;4925831;29;20053;-89
2023/08/22 00:56:19;;;;;;;12.95;4.30;;;;;;;19.00;100.00;101855.09;4936384;29;20093;-87
2023/08/22 00:58:45;;;;;;;5.90;3.60;;;;;;;18.92;100.00;101856.31;4919431;29;20508;-88
2023/08/22 01:01:11;;;;;;;8.90;4.40;;;;;;;18.89;100.00;101856.00;4936058;29;20035;-87
2023/08/22 01:03:37;;;;;;;8.37;4.10;;;;;;;18.87;100.00;101858.16;4935947;29;20440;-87
2023/08/22 01:06:11;;;;;;;6.63;4.20;;;;;;;18.88;100.00;101848.81;4919301;29;20032;-87
2023/08/22 01:08:41;;;;;;;9.33;4.03;;;;;;;18.87;100.00;101850.75;4919644;29;20023;-87
2023/08/22 01:11:15;;;;;;;8.93;3.97;;;;;;;18.83;100.00;101849.53;4936062;29;20477;-87
2023/08/22 01:13:43;;;;;;;8.32;4.13;;;;;;;18.82;100.00;101855.28;4919646;29;20542;-87
2023/08/22 01:16:12;;;;;;;6.72;4.03;;;;;;;18.77;100.00;101856.84;4935857;29;20039;-87
2023/08/22 01:18:40;;;;;;;10.27;4.25;;;;;;;18.74;100.00;101851.84;4918998;29;20039;-86
2023/08/22 01:21:06;;;;;;;8.33;4.30;;;;;;;18.70;100.00;101866.31;4936348;29;20043;-87
2023/08/22 01:23:33;;;;;;;10.18;5.10;;;;;;;18.62;100.00;101861.25;4904092;29;20032;-87
2023/08/22 01:26:00;;;;;;;11.50;4.63;;;;;;;18.56;100.00;101861.13;4919065;29;20127;-87
2023/08/22 01:28:34;;;;;;;6.83;4.20;;;;;;;18.53;100.00;101861.63;4919997;29;20118;-87
2023/08/22 01:31:04;;;;;;;9.65;4.60;;;;;;;18.54;100.00;101852.31;4939388;29;20030;-86
2023/08/22 01:33:29;;;;;;;7.55;4.50;;;;;;;18.54;100.00;101849.56;4939877;29;20114;-87
2023/08/22 01:35:57;;;;;;;6.50;4.60;;;;;;;18.54;100.00;101845.94;4922138;29;20115;-87
2023/08/22 01:38:25;;;;;;;8.70;4.35;;;;;;;18.57;100.00;101845.44;4939216;29;20043;-87
2023/08/22 01:40:52;;;;;;;8.35;4.63;;;;;;;18.56;100.00;101847.38;4939436;29;20066;-86
2023/08/22 01:43:18;;;;;;;6.72;4.32;;;;;;;18.57;100.00;101846.31;4922312;29;20035;-86
2023/08/22 01:45:46;;;;;;;7.67;4.70;;;;;;;18.58;100.00;101847.97;4939623;29;20031;-87
2023/08/22 01:48:12;;;;;;;8.13;4.88;;;;;;;18.56;100.00;101847.38;4921848;29;20052;-86
2023/08/22 01:50:37;;;;;;;14.00;5.45;;;;;;;18.55;100.00;101850.38;4922184;29;20408;-86
2023/08/22 01:53:03;;;;;;;8.43;4.80;;;;;;;18.51;100.00;101839.06;4939003;29;20087;-86
2023/08/22 01:55:28;;;;;;;9.70;4.50;;;;;;;18.54;100.00;101837.69;4939257;29;20479;-87
2023/08/22 01:57:53;;;;;;;10.63;4.60;;;;;;;18.58;100.00;101847.13;4922238;29;20043;-86
2023/08/22 02:00:19;;;;;;;7.35;4.30;;;;;;;18.59;100.00;101844.13;4938835;29;20039;-86
2023/08/22 02:02:44;;;;;;;7.63;4.53;;;;;;;18.60;100.00;101839.47;4939027;29;20524;-86
2023/08/22 02:05:10;;;;;;;6.73;4.33;;;;;;;18.57;100.00;101842.72;4905991;29;20050;-86
2023/08/22 02:07:36;;;;;;;7.22;4.40;;;;;;;18.59;100.00;101838.63;4922646;29;20028;-87
2023/08/22 02:10:03;;;;;;;7.57;4.07;;;;;;;18.53;100.00;101828.63;4938810;29;20031;-87
2023/08/22 02:12:32;;;;;;;6.80;4.20;;;;;;;18.46;100.00;101838.94;4921799;29;20037;-86
2023/08/22 02:14:58;;;;;;;7.93;4.25;;;;;;;18.42;100.00;101832.25;4939115;29;20027;-86
2023/08/22 02:17:23;;;;;;;6.10;4.03;;;;;;;18.33;100.00;101833.72;4939135;29;20040;-86
2023/08/22 02:19:51;;;;;;;6.63;3.97;;;;;;;18.34;100.00;101832.66;4939062;29;20047;-86
2023/08/22 02:22:17;;;;;;;9.20;4.50;;;;;;;18.27;100.00;101829.22;4921778;29;20032;-86
2023/08/22 02:24:42;;;;;;;7.17;4.20;;;;;;;18.24;100.00;101825.84;4905918;29;20118;-86
2023/08/22 02:27:07;;;;;;;13.27;4.60;;;;;;;18.24;100.00;101825.84;4890669;29;20453;-87
2023/08/22 02:29:33;;;;;;;7.50;4.43;;;;;;;18.24;100.00;101825.03;4938995;29;20106;-88
2023/08/22 02:31:58;;;;;;;5.97;4.55;;;;;;;18.20;100.00;101821.09;4921725;29;20120;-87
2023/08/22 02:34:25;;;;;;;7.27;3.97;;;;;;;18.18;100.00;101815.03;4905732;29;20035;-87
2023/08/22 02:36:50;;;;;;;5.97;3.90;;;;;;;18.14;100.00;101820.16;4938477;29;20035;-88
2023/08/22 02:39:16;;;;;;;7.20;4.10;;;;;;;18.13;100.00;101821.25;4921146;29;20032;-87
2023/08/22 02:41:41;;;;;;;7.57;4.10;;;;;;;18.10;100.00;101813.50;4921318;29;20491;-87
2023/08/22 02:44:07;;;;;;;6.65;4.10;;;;;;;18.09;100.00;101811.81;4921499;29;20381;-87
2023/08/22 02:46:32;;;;;;;9.97;4.27;;;;;;;18.09;100.00;101819.22;4921245;29;20027;-87
2023/08/22 02:48:57;;;;;;;7.47;4.30;;;;;;;18.08;100.00;101823.88;4920754;29;20493;-87
2023/08/22 02:51:23;;;;;;;10.73;4.50;;;;;;;18.04;100.00;101817.19;4921139;29;20087;-87
2023/08/22 02:53:51;;;;;;;9.03;4.67;;;;;;;18.05;100.00;101819.72;4921346;29;20019;-87
2023/08/22 02:56:16;;;;;;;11.27;5.03;;;;;;;18.06;100.00;101828.78;4920980;29;20047;-87
2023/08/22 02:58:42;;;;;;;12.87;5.23;;;;;;;18.06;100.00;101823.28;4920903;29;20035;-87
2023/08/22 03:01:07;;;;;;;6.80;4.38;;;;;;;18.07;100.00;101819.47;4920724;29;20091;-87
2023/08/22 03:03:33;;;;;;;8.00;4.57;;;;;;;18.09;100.00;101825.53;4920852;29;20036;-87
2023/08/22 03:06:00;;;;;;;7.60;4.90;;;;;;;18.09;100.00;101820.06;4920767;29;20046;-87
2023/08/22 03:08:28;;;;;;;8.30;4.70;;;;;;;18.07;100.00;101822.22;4920822;29;20032;-88
2023/08/22 03:10:59;;;;;;;8.80;5.55;;;;;;;18.08;100.00;101823.88;4920501;29;20036;-88
2023/08/22 03:13:25;;;;;;;7.20;4.43;;;;;;;18.06;100.00;101829.59;4921032;29;20115;-87
2023/08/22 03:15:52;;;;;;;9.00;5.87;;;;;;;18.04;100.00;101829.03;4920375;29;20043;-87
2023/08/22 03:18:18;;;;;;;13.30;5.88;;;;;;;18.00;100.00;101825.09;4921408;29;20043;-87
2023/08/22 03:20:46;;;;;;;8.60;5.00;;;;;;;17.95;100.00;101833.22;4920585;29;20408;-88
2023/08/22 03:23:11;;;;;;;10.30;5.60;;;;;;;17.93;100.00;101824.38;4920485;29;20041;-87
2023/08/22 03:25:37;;;;;;;11.90;5.43;;;;;;;17.89;100.00;101834.13;4905363;29;20123;-87
2023/08/22 03:28:02;;;;;;;9.15;5.10;;;;;;;17.84;100.00;101815.63;4904354;29;20043;-87
2023/08/22 03:30:28;;;;;;;8.60;6.27;;;;;;;17.78;100.00;101826.75;4920588;29;20126;-87
2023/08/22 03:32:53;;;;;;;10.30;5.80;;;;;;;17.77;100.00;101825.09;4920322;29;20036;-87
2023/08/22 03:35:19;;;;;;;14.70;7.90;;;;;;;17.66;100.00;101822.09;4920150;29;20086;-88
2023/08/22 03:37:44;;;;;;;10.70;6.72;;;;;;;17.67;100.00;101831.16;4920283;29;20079;-88
2023/08/22 03:40:10;;;;;;;8.50;6.27;;;;;;;17.68;100.00;101825.44;4937288;29;20036;-87
2023/08/22 03:42:35;;;;;;;13.27;7.18;;;;;;;17.61;100.00;101823.88;4920258;29;20457;-87
2023/08/22 03:45:01;;;;;;;12.20;7.60;;;;;;;17.49;100.00;101824.75;4920196;29;20536;-87
2023/08/22 03:47:26;;;;;;;12.50;7.20;;;;;;;17.41;100.00;101821.53;4919464;29;20059;-88
2023/08/22 03:49:52;;;;;;;12.40;7.63;;;;;;;17.36;100.00;101819.47;4904518;29;20034;-87
2023/08/22 03:52:17;;;;;;;12.20;7.27;;;;;;;17.33;100.00;101822.69;4920123;29;20053;-87
2023/08/22 03:54:42;;;;;;;12.40;7.13;;;;;;;17.31;100.00;101822.09;4937111;29;20256;-88
2023/08/22 03:57:08;;;;;;;13.93;7.33;;;;;;;17.29;100.00;101814.09;4919966;29;20023;-87
2023/08/22 03:59:34;;;;;;;9.90;6.97;;;;;;;17.28;100.00;101825.31;4903804;29;20032;-88
2023/08/22 04:01:59;;;;;;;10.23;7.65;;;;;;;17.21;100.00;101814.44;4919797;29;20038;-87
2023/08/22 04:04:24;;;;;;;10.53;7.40;;;;;;;17.17;100.00;101818.75;4920639;29;20118;-88
2023/08/22 04:06:50;;;;;;;11.63;6.87;;;;;;;17.15;100.00;101818.13;4904373;29;20035;-87
2023/08/22 04:09:15;;;;;;;12.27;7.13;;;;;;;17.08;100.00;101815.50;4919910;29;20469;-87
2023/08/22 04:11:43;;;;;;;10.80;6.50;;;;;;;17.05;100.00;101816.00;4919725;29;20069;-87
2023/08/22 04:14:08;;;;;;;11.47;6.70;;;;;;;17.05;100.00;101821.47;4936496;29;20034;-87
2023/08/22 04:16:34;;;;;;;11.82;7.43;;;;;;;17.00;100.00;101816.66;4919943;29;20130;-87
2023/08/22 04:18:59;;;;;;;15.03;7.23;;;;;;;16.95;100.00;101811.06;4903941;29;20493;-89
2023/08/22 04:21:25;;;;;;;15.67;7.77;;;;;;;16.90;100.00;101810.91;4888591;29;20038;-87
2023/08/22 04:23:50;;;;;;;9.87;7.80;;;;;;;16.84;100.00;101804.47;4919598;29;20043;-87
2023/08/22 04:26:18;;;;;;;13.90;7.82;;;;;;;16.81;100.00;101812.31;4919314;29;20032;-87
2023/08/22 04:28:43;;;;;;;13.83;8.47;;;;;;;16.71;100.00;101807.41;4919717;29;20032;-87
2023/08/22 04:31:09;;;;;;;13.40;8.50;;;;;;;16.68;100.00;101810.59;4919909;29;20027;-87
2023/08/22 04:33:34;;;;;;;11.70;8.30;;;;;;;16.63;100.00;101805.81;4919179;29;20028;-87
2023/08/22 04:36:00;;;;;;;15.97;8.63;;;;;;;16.59;100.00;101799.13;4919542;29;20039;-87
2023/08/22 04:38:25;;;;;;;16.45;9.18;;;;;;;16.57;100.00;101805.91;4936452;29;20032;-88
2023/08/22 04:40:50;;;;;;;13.43;9.23;;;;;;;16.57;100.00;101806.75;4919965;29;20032;-87
2023/08/22 04:43:18;;;;;;;13.53;8.40;;;;;;;16.55;100.00;101802.56;4919721;29;20020;-88
2023/08/22 04:45:44;;;;;;;12.98;8.68;;;;;;;16.54;100.00;101814.59;4936351;29;20469;-87
2023/08/22 04:48:09;;;;;;;13.50;8.70;;;;;;;16.52;100.00;101809.34;4936280;29;20061;-87
2023/08/22 04:50:35;;;;;;;13.47;8.80;;;;;;;16.55;100.00;101817.09;4919716;29;20469;-87
2023/08/22 04:53:00;;;;;;;12.38;8.35;;;;;;;16.51;100.00;101810.41;4919457;29;20384;-87
2023/08/22 04:55:26;;;;;;;14.00;8.40;;;;;;;16.53;100.00;101818.41;4919032;29;20078;-87
2023/08/22 04:57:51;;;;;;;13.52;8.27;;;;;;;16.55;100.00;101817.09;4919259;29;20036;-87
2023/08/22 05:00:17;;;;;;;13.10;8.67;;;;;;;16.54;100.00;101817.34;4936314;29;20035;-88
2023/08/22 05:02:43;;;;;;;14.73;8.10;;;;;;;16.57;100.00;101817.69;4938162;29;20115;-87
2023/08/22 05:05:10;;;;;;;13.83;8.77;;;;;;;16.62;100.00;101804.16;4923532;29;20279;-87
2023/08/22 05:07:36;;;;;;;13.30;8.52;;;;;;;16.67;100.00;101817.97;4923114;29;20424;-88
2023/08/22 05:10:02;;;;;;;15.17;9.07;;;;;;;16.66;100.00;101816.28;4923063;29;20043;-87
2023/08/22 05:12:27;;;;;;;16.60;9.95;;;;;;;16.65;100.00;101814.66;4922640;29;20031;-87
2023/08/22 05:14:53;;;;;;;11.80;8.60;;;;;;;16.66;100.00;101810.81;4922762;29;20487;-88
2023/08/22 05:17:18;;;;;;;14.98;8.60;;;;;;;16.70;100.00;101818.56;4906694;29;20031;-88
2023/08/22 05:19:44;;;;;;;13.27;8.80;;;;;;;16.73;100.00;101823.59;4922941;29;20036;-87
2023/08/22 05:22:09;;;;;;;16.03;9.23;;;;;;;16.75;100.00;101813.25;4922597;29;20119;-87
2023/08/22 05:24:36;;;;;;;20.45;9.98;;;;;;;16.78;100.00;101815.50;4906900;29;20040;-87
2023/08/22 05:27:04;;;;;;;12.15;9.38;;;;;;;16.75;100.00;101815.97;4922145;29;20044;-87
2023/08/22 05:29:29;;;;;;;17.27;9.30;;;;;;;16.79;100.00;101820.75;4906768;29;20488;-88
2023/08/22 05:31:57;;;;;;;16.75;9.57;;;;;;;16.77;100.00;101811.94;4922232;29;20039;-88
2023/08/22 05:34:22;;;;;;;13.63;9.67;;;;;;;16.80;100.00;101813.34;4922622;29;20043;-84
2023/08/22 05:36:48;;;;;;;16.83;9.55;;;;;;;16.88;100.00;101821.28;4922129;29;20032;-85
2023/08/22 05:39:13;;;;;;;19.13;8.93;;;;;;;16.92;100.00;101819.75;4922269;29;20532;-84
2023/08/22 05:41:38;;;;;;;15.97;10.00;;;;;;;16.96;100.00;101810.00;4922198;29;20031;-84
2023/08/22 05:44:04;;;;;;;17.03;10.20;;;;;;;17.01;100.00;101814.78;4922518;29;20035;-84
2023/08/22 05:46:30;;;;;;;17.43;9.67;;;;;;;17.03;100.00;101811.81;4922206;29;20028;-84
2023/08/22 05:48:55;;;;;;;16.47;9.40;;;;;;;17.08;100.00;101814.66;4921826;29;20792;-84
2023/08/22 05:51:21;;;;;;;12.17;9.00;;;;;;;17.12;100.00;101819.44;4922177;29;20048;-84
2023/08/22 05:53:46;;;;;;;17.10;9.15;;;;;;;17.23;100.00;101826.03;4922280;29;20611;-84
2023/08/22 05:56:12;;;;;;;14.20;9.30;;;;;;;17.30;100.00;101837.72;4906022;29;20032;-84
2023/08/22 05:58:37;;;;;;;14.80;8.80;;;;;;;17.37;100.00;101829.38;4922444;29;20042;-84
2023/08/22 06:01:10;;;;;;;14.10;9.17;;;;;;;17.43;100.00;101828.41;4906137;29;20032;-84
2023/08/22 06:03:36;;;;;;;14.30;9.13;;;;;;;17.49;100.00;101823.88;4939519;29;20275;-84
2023/08/22 06:06:03;;;;;;;14.18;8.15;;;;;;;17.57;100.00;101836.41;4921499;29;20397;-84
2023/08/22 06:08:28;;;;;;;18.60;8.95;;;;;;;17.63;100.00;101838.22;4921827;29;20032;-84
2023/08/22 06:10:53;;;;;;;16.87;7.97;;;;;;;17.70;100.00;101838.91;4922629;29;20545;-84
2023/08/22 06:13:19;;;;;;;16.83;8.40;;;;;;;17.76;100.00;101843.47;4938480;29;20043;-84
2023/08/22 06:15:44;;;;;;;18.53;8.20;;;;;;;17.85;100.00;101843.94;4938654;29;20283;-84
2023/08/22 06:18:10;;;;;;;13.97;7.80;;;;;;;17.93;100.00;101835.34;4905836;29;20425;-84
2023/08/22 06:20:38;;;;;;;12.47;7.80;;;;;;;17.99;100.00;101844.53;4921379;29;20062;-84
2023/08/22 06:23:05;;;;;;;11.25;7.70;;;;;;;18.06;100.00;101842.50;4938596;29;20035;-83
2023/08/22 06:25:31;;;;;;;13.48;7.38;;;;;;;18.12;100.00;101843.47;4938672;29;20023;-84
2023/08/22 06:27:56;;;;;;;11.27;7.25;;;;;;;18.18;100.00;101837.00;4938259;29;20027;-84
2023/08/22 06:30:22;;;;;;;13.63;7.47;;;;;;;18.21;100.00;101840.06;4938467;29;20042;-84
2023/08/22 06:32:47;;;;;;;15.30;7.13;;;;;;;18.30;100.00;101840.53;4938782;29;20044;-84
2023/08/22 06:35:13;;;;;;;10.73;7.30;;;;;;;18.38;100.00;101845.66;4938200;29;20111;-84
2023/08/22 06:37:39;;;;;;;13.90;6.97;;;;;;;18.49;100.00;101845.84;4905601;29;20046;-84
2023/08/22 06:40:05;;;;;;;11.97;7.13;;;;;;;18.54;100.00;101841.31;4921454;29;20082;-85
2023/08/22 06:42:31;;;;;;;12.20;7.13;;;;;;;18.65;100.00;101853.31;4921674;29;20122;-84
2023/08/22 06:44:57;;;;;;;9.63;6.03;;;;;;;18.72;100.00;101847.66;4905517;29;20560;-84
2023/08/22 06:47:24;;;;;;;12.55;6.10;;;;;;;18.80;100.00;101855.53;4921163;29;20063;-84
2023/08/22 06:49:50;;;;;;;12.43;5.30;;;;;;;18.90;100.00;101860.41;4906437;29;20036;-84
2023/08/22 06:52:15;;;;;;;9.00;4.90;;;;;;;18.95;100.00;101863.25;4938714;29;20133;-84
2023/08/22 06:54:41;;;;;;;9.47;5.03;;;;;;;19.02;100.00;101869.44;4921171;29;20087;-84
2023/08/22 06:57:06;;;;;;;7.40;5.40;;;;;;;19.09;100.00;101870.13;4921284;29;20384;-84
2023/08/22 06:59:32;;;;;;;7.95;5.03;;;;;;;19.19;100.00;101876.88;4920447;29;20382;-84
2023/08/22 07:01:58;;;;;;;10.00;5.63;;;;;;;19.28;100.00;101875.38;4937714;29;20116;-84
2023/08/22 07:04:23;;;;;;;11.15;5.88;;;;;;;19.40;99.93;101883.53;4938049;29;20464;-84
2023/08/22 07:06:49;;;;;;;8.73;5.70;;;;;;;19.51;98.20;101868.88;4937893;29;20062;-85
2023/08/22 07:09:15;;;;;;;10.57;5.57;;;;;;;19.63;97.79;101872.41;4921082;29;20106;-85
2023/08/22 07:11:40;;;;;;;6.60;5.03;;;;;;;19.73;95.16;101874.44;4920483;29;20039;-84
2023/08/22 07:14:05;;;;;;;8.83;4.37;;;;;;;19.78;89.55;101881.97;4905043;29;20110;-84
2023/08/22 07:16:31;;;;;;;6.53;3.40;;;;;;;19.85;86.78;101890.91;4904909;29;20380;-83
2023/08/22 07:18:56;;;;;;;10.40;3.97;;;;;;;19.92;88.54;101885.22;4904840;29;20540;-84
2023/08/22 07:21:22;;;;;;;4.57;3.53;;;;;;;20.08;89.42;101883.53;4889299;29;20036;-84
2023/08/22 07:23:47;;;;;;;9.47;3.77;;;;;;;20.15;86.54;101881.41;4904903;29;20035;-83
2023/08/22 07:26:12;;;;;;;5.33;3.47;;;;;;;20.27;86.43;101881.28;4920433;29;20038;-84
2023/08/22 07:28:38;;;;;;;11.17;4.07;;;;;;;20.32;84.52;101873.09;4920477;29;20040;-83
2023/08/22 07:31:03;;;;;;;6.83;4.13;;;;;;;20.47;86.47;101889.81;4920300;29;20074;-84
2023/08/22 07:33:32;;;;;;;8.68;4.18;;;;;;;20.59;85.13;101880.56;4937403;29;20028;-84
2023/08/22 07:35:58;;;;;;;9.15;4.80;;;;;;;20.74;84.62;101878.00;4937357;29;20034;-84
2023/08/22 07:38:24;;;;;;;10.63;4.93;;;;;;;20.92;84.60;101878.75;4921000;29;20024;-84
2023/08/22 07:40:50;;;;;;;11.50;5.60;;;;;;;21.10;83.70;101872.06;4920191;29;20090;-84
2023/08/22 07:43:15;;;;;;;10.45;5.07;;;;;;;21.31;83.43;101870.31;4920335;29;20357;-84
2023/08/22 07:45:40;;;;;;;8.97;5.30;;;;;;;21.54;82.67;101875.50;4937514;29;20032;-84
2023/08/22 07:48:06;;;;;;;12.70;5.90;;;;;;;21.78;80.16;101891.69;4919765;29;20055;-84
2023/08/22 07:50:32;;;;;;;11.47;6.23;;;;;;;21.99;78.72;101876.03;4937208;29;20040;-84
2023/08/22 07:52:58;;;;;;;12.63;6.50;;;;;;;22.24;75.09;101882.81;4937111;29;20043;-84
2023/08/22 07:55:23;;;;;;;14.38;6.93;;;;;;;22.42;75.24;101887.88;4920373;29;20031;-84
2023/08/22 07:57:50;;;;;;;17.47;6.83;;;;;;;22.40;75.06;101890.09;4936718;29;20369;-84
2023/08/22 08:00:16;;;;;;;16.77;6.90;;;;;;;22.27;75.94;101881.44;4904094;29;20032;-84
2023/08/22 08:02:42;;;;;;;17.17;6.43;;;;;;;22.36;76.99;101880.69;4920293;29;20040;-84
2023/08/22 08:05:07;;;;;;;11.70;6.20;;;;;;;22.46;75.47;101882.66;4936872;29;20391;-84
2023/08/22 08:07:34;;;;;;;13.60;6.63;;;;;;;22.59;75.32;101892.41;4936781;29;20027;-84
2023/08/22 08:09:59;;;;;;;10.93;6.27;;;;;;;22.76;75.09;101886.63;4920285;29;20032;-84
2023/08/22 08:12:25;;;;;;;9.40;5.97;;;;;;;23.05;74.19;101884.19;4936737;29;20503;-84
2023/08/22 08:14:50;;;;;;;12.60;5.70;;;;;;;23.26;73.67;101887.84;4936661;29;20036;-84
2023/08/22 08:17:19;;;;;;;10.27;4.70;;;;;;;23.24;72.76;101890.06;4903798;29;20052;-84
2023/08/22 08:19:45;;;;;;;9.98;4.47;;;;;;;23.15;72.61;101899.16;4904091;29;20035;-84
2023/08/22 08:22:14;;;;;;;13.68;5.30;;;;;;;23.10;71.74;101900.84;4919834;29;20358;-84
2023/08/22 08:24:42;;;;;;;11.88;4.97;;;;;;;23.21;71.58;101901.69;4936917;29;20068;-84
2023/08/22 08:27:07;;;;;;;10.82;4.45;;;;;;;23.33;70.90;101904.19;4936585;29;20484;-84
2023/08/22 08:29:32;;;;;;;9.30;4.00;;;;;;;23.52;71.54;101892.53;4936160;29;20024;-84
2023/08/22 08:31:58;;;;;;;8.20;4.00;;;;;;;23.74;70.42;101895.00;4903848;29;20036;-84
2023/08/22 08:34:24;;;;;;;7.63;3.93;;;;;;;23.95;70.90;101912.47;4919512;29;20066;-84
2023/08/22 08:36:50;;;;;;;13.52;4.15;;;;;;;23.97;69.54;101896.38;4935805;29;20119;-84
2023/08/22 08:39:17;;;;;;;12.55;3.90;;;;;;;24.22;69.53;101895.47;4936465;29;20070;-84
2023/08/22 08:41:50;;;;;;;8.83;3.60;;;;;;;24.49;68.45;101897.88;4936682;29;20384;-84
2023/08/22 08:44:16;;;;;;;8.18;4.00;;;;;;;24.24;67.00;101900.75;4920153;29;20369;-84
2023/08/22 08:46:42;;;;;;;6.32;4.00;;;;;;;23.97;67.15;101897.22;4919680;29;20047;-84
2023/08/22 08:49:08;;;;;;;7.60;4.00;;;;;;;23.88;68.86;101900.84;4919231;29;20446;-83
2023/08/22 08:51:35;;;;;;;9.10;4.00;;;;;;;23.90;68.23;101887.53;4919113;29;20042;-83
2023/08/22 08:54:01;;;;;;;12.37;4.73;;;;;;;23.83;68.25;101887.81;4936273;29;20051;-84
2023/08/22 08:56:27;;;;;;;10.52;4.63;;;;;;;23.83;68.75;101898.91;4919349;29;20110;-84
2023/08/22 08:58:53;;;;;;;12.97;4.33;;;;;;;23.90;67.82;101901.41;4936161;29;20032;-84
2023/08/22 09:01:18;;;;;;;13.85;5.43;;;;;;;23.89;68.33;101895.03;4903470;29;20081;-84
2023/08/22 09:03:44;;;;;;;6.07;4.17;;;;;;;23.87;68.42;101897.22;4919327;29;20040;-84
2023/08/22 09:06:10;;;;;;;10.40;4.38;;;;;;;23.84;68.89;101906.06;4936423;29;20485;-84
2023/08/22 09:08:35;;;;;;;10.30;4.32;;;;;;;23.96;70.50;101898.34;4918708;29;20043;-84
2023/08/22 09:11:02;;;;;;;12.40;5.40;;;;;;;24.13;69.09;101895.22;4903304;29;20047;-84
2023/08/22 09:13:32;;;;;;;9.27;6.13;;;;;;;24.08;68.80;101888.88;4919352;29;20046;-84
2023/08/22 09:16:01;;;;;;;10.87;5.97;;;;;;;24.04;69.77;101898.88;4936144;29;20079;-84
2023/08/22 09:18:27;;;;;;;13.57;6.20;;;;;;;23.96;69.11;101901.13;4919611;29;20115;-84
2023/08/22 09:21:02;;;;;;;11.82;7.03;;;;;;;24.03;69.98;101902.75;4919181;29;20039;-84
2023/08/22 09:23:28;;;;;;;14.02;7.35;;;;;;;24.13;69.33;101897.19;4919260;29;20032;-84
2023/08/22 09:25:55;;;;;;;14.88;7.22;;;;;;;24.13;69.15;101903.56;4935799;29;20028;-84
2023/08/22 09:28:20;;;;;;;17.23;7.27;;;;;;;24.07;69.80;101901.09;4935964;29;20036;-84
2023/08/22 09:30:50;;;;;;;14.35;7.60;;;;;;;23.97;70.81;101907.47;4935863;29;20044;-84
2023/08/22 09:33:16;;;;;;;16.17;7.70;;;;;;;23.90;70.63;101898.63;4936066;29;20032;-84
2023/08/22 09:35:41;;;;;;;19.87;7.30;;;;;;;23.83;71.18;101899.72;4918549;29;20043;-84
2023/08/22 09:38:08;;;;;;;11.32;7.32;;;;;;;24.03;71.10;101891.66;4918601;29;20036;-84
2023/08/22 09:40:34;;;;;;;12.20;7.22;;;;;;;24.25;70.77;101888.56;4935832;29;20059;-84
2023/08/22 09:43:03;;;;;;;11.57;6.87;;;;;;;24.47;68.68;101896.50;4919502;29;20055;-84
2023/08/22 09:45:32;;;;;;;14.60;6.75;;;;;;;24.74;67.73;101898.06;4919177;29;20031;-84
2023/08/22 09:48:00;;;;;;;14.57;7.40;;;;;;;24.84;66.46;101900.78;4918502;29;20515;-85
2023/08/22 09:50:36;;;;;;;13.25;6.50;;;;;;;25.00;66.12;101905.13;4905824;29;20044;-84
2023/08/22 09:53:03;;;;;;;14.80;5.70;;;;;;;24.95;64.64;101902.38;4922444;29;20032;-84
2023/08/22 09:55:30;;;;;;;13.73;5.93;;;;;;;24.92;64.06;101905.75;4939719;29;20067;-84
2023/08/22 09:57:56;;;;;;;12.43;5.90;;;;;;;24.99;64.58;101903.44;4939227;29;20035;-84
2023/08/22 10:00:26;;;;;;;9.48;5.30;;;;;;;24.90;62.62;101915.47;4921654;29;20038;-84
2023/08/22 10:02:54;;;;;;;11.57;5.00;;;;;;;24.90;62.69;101913.50;4922283;29;20070;-84
2023/08/22 10:05:20;;;;;;;11.90;5.33;;;;;;;24.70;61.85;101906.13;4939068;29;20095;-88
2023/08/22 10:07:48;;;;;;;8.80;4.68;;;;;;;24.55;61.78;101906.16;4890130;29;20477;-86
2023/08/22 10:10:13;;;;;;;10.35;3.90;;;;;;;24.96;62.16;101903.19;4921534;29;20035;-87
2023/08/22 10:12:40;;;;;;;7.40;3.60;;;;;;;25.48;59.31;101906.44;4922904;29;20048;-87
2023/08/22 10:15:09;;;;;;;8.57;3.10;;;;;;;25.53;57.33;101903.63;4921455;29;20073;-87
2023/08/22 10:17:36;;;;;;;5.60;2.53;;;;;;;25.56;56.99;101900.28;4921670;29;20405;-87
2023/08/22 10:20:06;;;;;;;9.40;3.00;;;;;;;25.48;58.77;101887.84;4921855;29;20036;-87
2023/08/22 10:22:34;;;;;;;4.43;2.75;;;;;;;25.50;56.92;101882.00;4938668;29;20105;-87
2023/08/22 10:25:04;;;;;;;6.90;3.60;;;;;;;25.35;56.98;101881.00;4921538;29;20039;-87
2023/08/22 10:27:30;;;;;;;5.88;2.92;;;;;;;25.32;58.25;101895.47;4921345;29;20100;-87
2023/08/22 10:30:18;;;;;;;8.43;2.90;;;;;;;25.46;57.27;101894.81;4922362;29;20044;-87
2023/08/22 10:36:17;;;;;;;6.22;2.90;;;;;;;25.14;59.02;101902.53;4868023;29;20068;-87
2023/08/22 10:38:53;;;;;;;4.50;2.63;;;;;;;25.16;57.62;101891.94;4921408;29;20070;-87
2023/08/22 10:44:31;;;;;;;9.63;2.80;;;;;;;25.79;55.57;101870.84;4894872;29;20503;-87
2023/08/22 10:47:01;;;;;;;6.18;2.20;;;;;;;26.48;56.05;101883.72;4921155;29;20028;-87
2023/08/22 10:49:36;;;;;;;5.55;2.15;;;;;;;26.74;53.29;101889.78;4937791;29;20063;-87
2023/08/22 10:52:07;;;;;;;13.57;2.60;;;;;;;27.26;52.87;101881.47;4921032;29;20074;-87
2023/08/22 10:57:47;;;;;;;8.67;3.23;;;;;;;26.90;52.98;101884.81;4926308;29;20051;-86
2023/08/22 11:00:24;;;;;;;8.05;2.92;;;;;;;27.24;52.12;101883.72;4919965;29;20424;-87
2023/08/22 11:02:51;;;;;;;8.27;2.65;;;;;;;27.68;51.10;101882.41;4920958;29;20038;-87
2023/08/22 11:05:17;;;;;;;7.20;2.40;;;;;;;27.99;47.90;101881.88;4937947;29;20114;-87
2023/08/22 11:07:48;;;;;;;5.30;2.30;;;;;;;28.34;47.80;101876.69;4937548;29;20110;-87
2023/08/22 11:10:19;;;;;;;4.72;1.80;;;;;;;28.24;43.43;101882.50;4938034;29;20480;-87
2023/08/22 11:12:49;;;;;;;2.45;1.20;;;;;;;27.96;41.62;101885.25;4920985;29;20027;-87
2023/08/22 11:15:16;;;;;;;2.97;1.45;;;;;;;28.06;43.27;101887.06;4920979;29;20042;-87
2023/08/22 11:17:43;;;;;;;3.77;1.50;;;;;;;27.86;43.77;101891.88;4921385;29;20447;-87
2023/08/22 11:20:16;;;;;;;2.60;1.17;;;;;;;28.11;42.91;101895.31;4920256;29;20031;-87
2023/08/22 11:22:43;;;;;;;3.13;1.10;;;;;;;28.51;40.48;101890.84;4937920;29;20039;-87
2023/08/22 11:25:10;;;;;;;3.50;1.10;;;;;;;28.59;39.10;101896.81;4920489;29;20059;-87
2023/08/22 11:27:40;;;;;;;2.45;1.17;;;;;;;28.10;41.02;101899.25;4920276;29;20077;-87
2023/08/22 11:30:06;;;;;;;3.30;1.10;;;;;;;27.53;40.62;101903.03;4920405;29;20337;-87
2023/08/22 11:32:34;;;;;;;2.72;1.02;;;;;;;26.96;41.55;101891.97;4904869;29;20047;-87
2023/08/22 11:35:07;;;;;;;2.97;1.10;;;;;;;26.84;43.12;101897.16;4920258;29;20126;-86
2023/08/22 11:37:35;;;;;;;2.65;1.30;;;;;;;26.58;42.86;101903.88;4920161;29;20055;-87
2023/08/22 11:40:08;;;;;;;3.13;1.15;;;;;;;26.76;44.04;101902.25;4919717;29;20499;-86
2023/08/22 11:42:40;;;;;;;2.20;0.90;;;;;;;26.72;41.19;101900.38;4920484;29;20403;-87
2023/08/22 11:45:10;;;;;;;1.65;0.90;;;;;;;26.54;42.89;101899.22;4937239;29;20048;-87
2023/08/22 11:47:37;;;;;;;3.85;1.10;;;;;;;26.02;44.13;101894.28;4919749;29;20028;-87
2023/08/22 11:50:04;;;;;;;1.45;0.88;;;;;;;25.79;44.54;101903.38;4937123;29;20041;-87
2023/08/22 11:52:30;;;;;;;1.52;0.98;;;;;;;25.71;45.52;101896.53;4937063;29;20537;-88
2023/08/22 11:55:06;;;;;;;4.80;1.10;;;;;;;25.48;46.09;101892.56;4937053;29;20036;-88
2023/08/22 11:57:34;;;;;;;2.08;0.80;;;;;;;25.40;46.49;101902.34;4919384;29;20068;-87
2023/08/22 12:00:03;;;;;;;2.88;1.00;;;;;;;25.29;47.10;101897.97;4937237;29;20171;-88
2023/08/22 12:02:31;;;;;;;1.98;1.20;;;;;;;25.18;47.97;101892.47;4936891;29;20114;-87
2023/08/22 12:04:56;;;;;;;2.60;1.10;;;;;;;25.25;48.78;101903.28;4936914;29;20032;-88
2023/08/22 12:07:27;;;;;;;2.08;1.10;;;;;;;25.53;47.89;101896.13;4920947;29;20034;-88
2023/08/22 12:10:13;;;;;;;2.40;0.90;;;;;;;25.70;47.49;101892.91;4937081;29;20031;-87
2023/08/22 12:12:41;;;;;;;1.58;0.90;;;;;;;26.02;47.07;101905.38;4936386;29;20102;-87
2023/08/22 12:15:07;;;;;;;4.07;1.25;;;;;;;26.19;46.75;101896.59;4919678;29;20039;-87